createdAt,value
2022-08-22T00:00:00.410Z,5.95
2022-08-22T00:03:04.185Z,5.30
2022-08-22T00:03:06.742Z,6.18
2022-08-22T00:03:08.328Z,6.75
2022-08-22T00:06:32.151Z,6.78
2022-08-22T00:09:44.382Z,6.33
2022-08-22T00:12:54.152Z,6.35
2022-08-22T00:16:09.133Z,7.60
2022-08-22T00:19:19.272Z,5.93
2022-08-22T00:22:27.285Z,6.22
2022-08-22T00:25:48.902Z,5.87
2022-08-22T00:28:59.436Z,7.15
2022-08-22T00:32:12.072Z,6.32
2022-08-22T00:35:22.554Z,6.10
2022-08-22T00:38:31.569Z,6.60
2022-08-22T00:42:07.224Z,6.53
2022-08-22T00:45:48.270Z,6.45
2022-08-22T00:49:16.023Z,5.78
2022-08-22T00:53:02.702Z,7.00
2022-08-22T00:56:23.042Z,6.68
2022-08-22T00:59:54.386Z,7.23
2022-08-22T01:03:39.652Z,6.95
2022-08-22T01:06:55.358Z,6.85
2022-08-22T01:10:14.657Z,6.15
2022-08-22T01:13:38.090Z,6.43
2022-08-22T01:17:01.488Z,6.83
2022-08-22T01:20:40.786Z,7.13
2022-08-22T01:24:20.812Z,6.65
2022-08-22T01:27:57.585Z,6.50
2022-08-22T01:31:42.470Z,6.07
2022-08-22T01:35:33.233Z,5.63
2022-08-22T01:38:53.735Z,6.70
2022-08-22T01:42:17.135Z,7.17
2022-08-22T01:45:37.354Z,6.27
2022-08-22T01:48:46.148Z,7.30
2022-08-22T01:51:55.106Z,6.28
2022-08-22T01:55:03.994Z,6.30
2022-08-22T01:58:17.024Z,6.00
2022-08-22T02:01:33.176Z,5.70
2022-08-22T02:04:43.444Z,6.70
2022-08-22T02:07:52.671Z,6.05
2022-08-22T02:11:04.383Z,5.82
2022-08-22T02:14:17.934Z,6.47
2022-08-22T02:17:26.870Z,6.20
2022-08-22T02:20:34.886Z,8.82
2022-08-22T02:23:48.987Z,6.18
2022-08-22T02:27:04.533Z,6.18
2022-08-22T02:30:11.076Z,7.20
2022-08-22T02:33:22.894Z,5.93
2022-08-22T02:36:30.566Z,5.75
2022-08-22T02:39:38.637Z,8.02
2022-08-22T02:42:47.989Z,6.50
2022-08-22T02:45:57.077Z,6.50
2022-08-22T02:49:07.494Z,6.27
2022-08-22T02:52:15.938Z,8.38
2022-08-22T02:55:28.716Z,8.32
2022-08-22T02:58:47.363Z,6.97
2022-08-22T03:01:51.310Z,7.90
2022-08-22T03:04:56.503Z,8.50
2022-08-22T03:08:06.091Z,11.40
2022-08-22T03:11:17.315Z,8.82
2022-08-22T03:14:30.975Z,9.13
2022-08-22T03:17:40.204Z,8.60
2022-08-22T03:20:47.940Z,9.23
2022-08-22T03:23:56.169Z,11.80
2022-08-22T03:27:06.076Z,10.00
2022-08-22T03:30:17.720Z,8.05
2022-08-22T03:33:23.025Z,10.57
2022-08-22T03:36:29.006Z,10.23
2022-08-22T03:39:52.874Z,8.63
2022-08-22T03:43:23.243Z,11.70
2022-08-22T03:46:58.275Z,7.88
2022-08-22T03:50:46.896Z,9.97
2022-08-22T03:54:11.511Z,9.43
2022-08-22T03:57:54.655Z,9.27
2022-08-22T04:01:29.334Z,8.65
2022-08-22T04:05:25.922Z,9.35
2022-08-22T04:09:04.350Z,9.27
2022-08-22T04:12:43.635Z,9.53
2022-08-22T04:15:58.834Z,9.63
2022-08-22T04:19:20.637Z,9.50
2022-08-22T04:23:01.496Z,9.32
2022-08-22T04:26:12.643Z,10.67
2022-08-22T04:29:22.372Z,7.60
2022-08-22T04:32:31.932Z,8.63
2022-08-22T04:35:41.760Z,8.98
2022-08-22T04:38:49.534Z,8.82
2022-08-22T04:42:11.108Z,7.83
2022-08-22T04:45:27.288Z,8.70
2022-08-22T04:48:33.913Z,7.70
2022-08-22T04:51:42.145Z,7.55
2022-08-22T04:54:58.317Z,7.68
2022-08-22T04:58:11.866Z,9.57
2022-08-22T05:01:19.233Z,8.87
2022-08-22T05:04:26.324Z,7.72
2022-08-22T05:07:35.889Z,6.85
2022-08-22T05:10:44.174Z,7.63
2022-08-22T05:13:52.220Z,7.87
2022-08-22T05:16:58.629Z,8.30
2022-08-22T05:20:07.928Z,7.75
2022-08-22T05:23:17.932Z,9.15
2022-08-22T05:26:22.938Z,10.18
2022-08-22T05:29:31.399Z,8.93
2022-08-22T05:32:43.331Z,9.27
2022-08-22T05:35:55.825Z,8.20
2022-08-22T05:39:03.690Z,7.38
2022-08-22T05:42:14.700Z,8.73
2022-08-22T05:45:20.254Z,7.80
2022-08-22T05:48:30.174Z,7.23
2022-08-22T05:51:40.651Z,7.70
2022-08-22T05:54:51.884Z,6.78
2022-08-22T05:58:10.801Z,7.70
2022-08-22T06:01:23.521Z,7.93
2022-08-22T06:04:33.872Z,8.03
2022-08-22T06:07:43.058Z,6.85
2022-08-22T06:10:48.739Z,6.32
2022-08-22T06:13:59.306Z,6.57
2022-08-22T06:17:10.179Z,7.67
2022-08-22T06:20:19.702Z,7.80
2022-08-22T06:23:27.608Z,8.13
2022-08-22T06:26:38.084Z,7.95
2022-08-22T06:29:46.147Z,7.25
2022-08-22T06:32:59.175Z,7.40
2022-08-22T06:36:24.765Z,7.50
2022-08-22T06:39:31.418Z,6.80
2022-08-22T06:42:37.957Z,6.60
2022-08-22T06:45:42.945Z,7.07
2022-08-22T06:48:46.643Z,6.93
2022-08-22T06:51:50.876Z,7.80
2022-08-22T06:55:00.272Z,7.10
2022-08-22T06:58:05.932Z,6.65
2022-08-22T07:01:15.155Z,7.88
2022-08-22T07:04:19.249Z,6.90
2022-08-22T07:07:26.474Z,6.13
2022-08-22T07:10:29.276Z,5.65
2022-08-22T07:13:33.675Z,6.55
2022-08-22T07:16:43.025Z,6.10
2022-08-22T07:19:49.498Z,6.20
2022-08-22T07:22:55.239Z,6.97
2022-08-22T07:26:15.048Z,7.07
2022-08-22T07:29:28.437Z,6.80
2022-08-22T07:32:42.110Z,6.75
2022-08-22T07:35:53.643Z,7.60
2022-08-22T07:39:11.184Z,6.20
2022-08-22T07:42:18.774Z,6.70
2022-08-22T07:45:29.489Z,6.25
2022-08-22T07:48:59.321Z,6.15
2022-08-22T07:52:05.178Z,7.23
2022-08-22T07:55:23.619Z,7.03
2022-08-22T07:58:28.770Z,6.97
2022-08-22T08:01:32.170Z,8.63
2022-08-22T08:04:40.596Z,7.85
2022-08-22T08:07:47.182Z,7.63
2022-08-22T08:10:51.993Z,5.93
2022-08-22T08:13:59.179Z,5.72
2022-08-22T08:17:04.403Z,7.30
2022-08-22T08:20:12.568Z,4.57
2022-08-22T08:23:23.641Z,5.80
2022-08-22T08:26:33.657Z,4.83
2022-08-22T08:29:37.013Z,6.93
2022-08-22T08:32:41.750Z,5.45
2022-08-22T08:36:02.746Z,5.72
2022-08-22T08:39:15.932Z,5.63
2022-08-22T08:42:55.559Z,6.27
2022-08-22T08:46:19.808Z,4.72
2022-08-22T08:49:44.155Z,8.82
2022-08-22T08:53:17.512Z,6.78
2022-08-22T08:56:29.958Z,6.33
2022-08-22T08:59:45.554Z,5.50
2022-08-22T09:02:55.268Z,5.22
2022-08-22T09:06:23.095Z,4.32
2022-08-22T09:09:45.511Z,5.00
2022-08-22T09:13:15.441Z,5.17
2022-08-22T09:16:37.099Z,4.17
2022-08-22T09:20:17.654Z,5.45
2022-08-22T09:23:53.836Z,4.55
2022-08-22T09:27:01.868Z,6.18
2022-08-22T09:30:11.542Z,5.23
2022-08-22T09:33:19.053Z,5.30
2022-08-22T09:36:26.956Z,4.60
2022-08-22T09:39:37.087Z,4.70
2022-08-22T09:42:53.114Z,5.28
2022-08-22T09:46:08.682Z,3.87
2022-08-22T09:49:18.348Z,4.53
2022-08-22T09:52:44.561Z,5.00
2022-08-22T09:55:56.871Z,6.35
2022-08-22T09:59:06.792Z,5.20
2022-08-22T10:02:28.785Z,4.03
2022-08-22T10:05:44.062Z,4.77
2022-08-22T10:08:54.876Z,6.35
2022-08-22T10:12:04.982Z,6.55
2022-08-22T10:15:22.283Z,3.70
2022-08-22T10:18:36.707Z,4.53
2022-08-22T10:22:18.367Z,4.73
2022-08-22T10:25:35.116Z,4.53
2022-08-22T10:28:47.926Z,5.45
2022-08-22T10:32:00.071Z,4.57
2022-08-22T10:35:18.606Z,5.40
2022-08-22T10:38:25.364Z,5.33
2022-08-22T10:41:33.584Z,3.67
2022-08-22T10:44:45.978Z,4.55
2022-08-22T10:48:33.739Z,5.28
2022-08-22T10:51:46.511Z,5.57
2022-08-22T10:54:53.641Z,4.40
2022-08-22T10:58:06.598Z,4.45
2022-08-22T11:01:37.149Z,6.00
2022-08-22T11:05:09.102Z,3.03
2022-08-22T11:08:22.909Z,5.13
2022-08-22T11:11:44.908Z,3.07
2022-08-22T11:15:04.232Z,4.57
2022-08-22T11:18:18.434Z,5.47
2022-08-22T11:21:29.066Z,4.93
2022-08-22T11:25:36.197Z,3.97
2022-08-22T11:29:13.491Z,3.90
2022-08-22T11:32:25.284Z,4.18
2022-08-22T11:35:38.102Z,5.40
2022-08-22T11:38:50.766Z,4.10
2022-08-22T11:42:05.646Z,5.97
2022-08-22T11:45:18.840Z,4.63
2022-08-22T11:48:29.986Z,4.32
2022-08-22T11:51:55.348Z,4.95
2022-08-22T11:55:16.763Z,4.93
2022-08-22T11:58:29.537Z,5.30
2022-08-22T12:01:42.010Z,4.23
2022-08-22T12:04:48.489Z,3.15
2022-08-22T12:07:57.864Z,4.72
2022-08-22T12:11:09.652Z,4.70
2022-08-22T12:14:21.745Z,5.30
2022-08-22T12:18:01.023Z,4.90
2022-08-22T12:21:21.521Z,4.15
2022-08-22T12:24:34.963Z,4.55
2022-08-22T12:27:55.129Z,4.75
2022-08-22T12:31:07.808Z,4.97
2022-08-22T12:34:19.284Z,4.57
2022-08-22T12:37:30.997Z,4.25
2022-08-22T12:40:55.382Z,4.72
2022-08-22T12:44:16.509Z,5.95
2022-08-22T12:47:34.397Z,4.13
2022-08-22T12:50:46.780Z,4.43
2022-08-22T12:54:08.985Z,5.15
2022-08-22T12:57:23.759Z,5.13
2022-08-22T13:00:34.672Z,5.57
2022-08-22T13:03:45.151Z,4.63
2022-08-22T13:06:58.331Z,4.13
2022-08-22T13:10:04.429Z,5.28
2022-08-22T13:13:12.266Z,6.55
2022-08-22T13:16:20.205Z,5.10
2022-08-22T13:19:28.627Z,6.57
2022-08-22T13:22:36.342Z,4.73
2022-08-22T13:26:01.311Z,4.38
2022-08-22T13:29:25.157Z,5.05
2022-08-22T13:32:36.908Z,4.90
2022-08-22T13:35:52.277Z,3.70
2022-08-22T13:39:04.078Z,4.87
2022-08-22T13:42:27.603Z,4.40
2022-08-22T13:45:35.966Z,4.03
2022-08-22T13:48:50.861Z,4.07
2022-08-22T13:52:02.867Z,4.30
2022-08-22T13:55:13.736Z,4.40
2022-08-22T13:58:26.524Z,4.47
2022-08-22T14:01:38.722Z,4.90
2022-08-22T14:04:44.102Z,4.35
2022-08-22T14:07:54.012Z,5.20
2022-08-22T14:11:06.772Z,4.67
2022-08-22T14:14:11.790Z,5.38
2022-08-22T14:17:19.404Z,5.80
2022-08-22T14:20:32.118Z,5.18
2022-08-22T14:23:36.850Z,5.50
2022-08-22T14:26:50.273Z,5.10
2022-08-22T14:29:56.247Z,4.35
2022-08-22T14:33:21.980Z,5.35
2022-08-22T14:36:28.063Z,4.70
2022-08-22T14:39:37.144Z,4.90
2022-08-22T14:42:50.820Z,5.47
2022-08-22T14:46:02.030Z,5.03
2022-08-22T14:49:25.293Z,8.05
2022-08-22T14:52:36.982Z,5.45
2022-08-22T14:55:42.421Z,6.93
2022-08-22T14:58:51.497Z,4.23
2022-08-22T15:01:57.913Z,6.15
2022-08-22T15:05:13.020Z,6.43
2022-08-22T15:08:27.475Z,4.63
2022-08-22T15:11:32.437Z,5.90
2022-08-22T15:14:51.910Z,4.33
2022-08-22T15:17:55.961Z,6.20
2022-08-22T15:21:06.761Z,6.28
2022-08-22T15:24:15.129Z,4.75
2022-08-22T15:27:19.436Z,4.27
2022-08-22T15:30:36.059Z,4.87
2022-08-22T15:33:43.428Z,5.10
2022-08-22T15:37:28.132Z,4.55
2022-08-22T15:40:41.184Z,4.78
2022-08-22T15:43:48.833Z,4.40
2022-08-22T15:47:00.542Z,5.67
2022-08-22T15:50:07.869Z,6.63
2022-08-22T15:53:15.986Z,5.00
2022-08-22T15:56:29.869Z,5.82
2022-08-22T15:59:53.356Z,5.27
2022-08-22T16:03:02.355Z,4.67
2022-08-22T16:06:08.072Z,4.88
2022-08-22T16:09:32.664Z,5.13
2022-08-22T16:12:42.486Z,4.75
2022-08-22T16:16:02.955Z,6.73
2022-08-22T16:19:18.831Z,4.33
2022-08-22T16:22:21.506Z,5.35
2022-08-22T16:26:05.539Z,5.30
2022-08-22T16:29:33.939Z,4.75
2022-08-22T16:32:57.401Z,5.50
2022-08-22T16:36:41.622Z,4.67
2022-08-22T16:39:47.486Z,4.57
2022-08-22T16:43:10.364Z,5.18
2022-08-22T16:46:36.410Z,5.95
2022-08-22T16:49:55.711Z,5.50
2022-08-22T16:53:08.190Z,5.63
2022-08-22T16:56:27.523Z,4.82
2022-08-22T16:59:44.705Z,5.60
2022-08-22T17:03:08.304Z,7.72
2022-08-22T17:06:32.584Z,4.83
2022-08-22T17:10:14.816Z,5.33
2022-08-22T17:13:41.079Z,4.60
2022-08-22T17:17:02.478Z,6.03
2022-08-22T17:20:25.149Z,4.72
2022-08-22T17:23:34.804Z,5.37
2022-08-22T17:26:55.122Z,5.40
2022-08-22T17:30:04.105Z,5.35
2022-08-22T17:33:17.279Z,5.07
2022-08-22T17:36:32.072Z,4.50
2022-08-22T17:39:54.460Z,4.68
2022-08-22T17:43:26.902Z,4.47
2022-08-22T17:46:43.189Z,5.53
2022-08-22T17:50:00.939Z,4.63
2022-08-22T17:53:10.701Z,5.67
2022-08-22T17:56:21.161Z,4.82
2022-08-22T17:59:30.339Z,5.25
2022-08-22T18:02:35.482Z,5.25
2022-08-22T18:05:47.782Z,5.38
2022-08-22T18:12:25.589Z,5.57
2022-08-22T18:15:33.005Z,8.23
2022-08-22T18:18:40.077Z,6.00
2022-08-22T18:21:49.308Z,6.40
2022-08-22T18:24:58.518Z,7.57
2022-08-22T18:28:06.473Z,5.45
2022-08-22T18:31:16.478Z,7.78
2022-08-22T18:34:32.415Z,6.95
2022-08-22T18:37:49.836Z,7.95
2022-08-22T18:40:59.911Z,4.67
2022-08-22T18:44:11.481Z,5.72
2022-08-22T18:47:22.644Z,4.85
2022-08-22T18:50:30.879Z,5.60
2022-08-22T18:53:38.382Z,4.53
2022-08-22T18:56:52.176Z,4.53
2022-08-22T19:00:06.272Z,5.45
2022-08-22T19:03:27.773Z,6.22
2022-08-22T19:06:45.498Z,6.85
2022-08-22T19:10:14.684Z,5.80
2022-08-22T19:13:31.256Z,5.17
2022-08-22T19:17:13.856Z,5.35
2022-08-22T19:20:45.457Z,5.40
2022-08-22T19:23:50.920Z,4.53
2022-08-22T19:27:25.672Z,4.40
2022-08-22T19:30:43.736Z,6.67
2022-08-22T19:33:49.705Z,5.03
2022-08-22T19:37:32.795Z,6.28
2022-08-22T19:40:53.547Z,5.40
2022-08-22T19:43:56.635Z,6.57
2022-08-22T19:47:06.700Z,4.70
2022-08-22T19:50:14.608Z,4.55
2022-08-22T19:53:36.250Z,6.00
2022-08-22T19:56:53.627Z,6.50
2022-08-22T20:00:05.151Z,6.93
2022-08-22T20:03:14.919Z,4.87
2022-08-22T20:06:45.740Z,5.47
2022-08-22T20:10:05.448Z,5.60
2022-08-22T20:13:12.342Z,4.05
2022-08-22T20:16:19.324Z,5.15
2022-08-22T20:19:23.855Z,4.57
2022-08-22T20:22:30.375Z,4.93
2022-08-22T20:25:42.442Z,5.60
2022-08-22T20:28:52.345Z,4.25
2022-08-22T20:31:58.778Z,4.63
2022-08-22T20:35:05.573Z,5.57
2022-08-22T20:38:12.046Z,4.95
2022-08-22T20:41:38.776Z,5.28
2022-08-22T20:44:44.343Z,5.40
2022-08-22T20:47:56.323Z,6.35
2022-08-22T20:51:05.892Z,5.47
2022-08-22T20:54:19.946Z,5.15
2022-08-22T20:57:23.071Z,5.95
2022-08-22T21:00:28.448Z,5.88
2022-08-22T21:03:40.046Z,5.18
2022-08-22T21:06:44.085Z,5.93
2022-08-22T21:10:12.578Z,5.32
2022-08-22T21:13:19.594Z,4.70
2022-08-22T21:16:31.549Z,5.15
2022-08-22T21:19:34.585Z,5.63
2022-08-22T21:22:38.873Z,4.67
2022-08-22T21:25:54.860Z,5.25
2022-08-22T21:29:02.990Z,5.10
2022-08-22T21:32:19.612Z,5.25
2022-08-22T21:35:28.160Z,4.70
2022-08-22T21:38:32.290Z,3.37
2022-08-22T21:41:40.763Z,3.88
2022-08-22T21:44:50.656Z,4.93
2022-08-22T21:47:53.971Z,4.55
2022-08-22T21:50:56.641Z,5.60
2022-08-22T21:54:40.022Z,4.87
2022-08-22T21:57:44.122Z,3.97
2022-08-22T22:00:53.502Z,5.28
2022-08-22T22:03:57.544Z,4.85
2022-08-22T22:07:00.534Z,4.50
2022-08-22T22:10:03.280Z,5.30
2022-08-22T22:13:08.091Z,4.30
2022-08-22T22:16:12.948Z,4.32
2022-08-22T22:19:15.757Z,4.88
2022-08-22T22:22:18.542Z,4.15
2022-08-22T22:25:41.258Z,5.80
2022-08-22T22:28:48.381Z,5.15
2022-08-22T22:31:51.264Z,4.38
2022-08-22T22:34:53.966Z,5.03
2022-08-22T22:37:57.831Z,4.85
2022-08-22T22:41:00.832Z,4.80
2022-08-22T22:44:05.784Z,5.85
2022-08-22T22:47:08.459Z,5.65
2022-08-22T22:50:11.412Z,4.50
2022-08-22T22:53:19.523Z,5.32
2022-08-22T22:56:26.629Z,4.63
2022-08-22T22:59:30.622Z,4.10
2022-08-22T23:02:35.632Z,4.82
2022-08-22T23:05:38.313Z,5.75
2022-08-22T23:08:41.624Z,5.03
2022-08-22T23:11:45.564Z,4.80
2022-08-22T23:14:49.610Z,4.80
2022-08-22T23:17:55.114Z,5.57
2022-08-22T23:20:58.214Z,5.07
2022-08-22T23:24:01.650Z,5.22
2022-08-22T23:27:05.496Z,5.77
2022-08-22T23:30:12.332Z,5.70
2022-08-22T23:33:15.430Z,5.45
2022-08-22T23:36:20.908Z,4.97
2022-08-22T23:39:25.118Z,5.53
2022-08-22T23:42:29.483Z,4.80
2022-08-22T23:45:33.512Z,5.35
2022-08-22T23:48:36.330Z,5.70
2022-08-22T23:51:39.579Z,5.13
2022-08-22T23:54:42.218Z,5.72
2022-08-22T23:57:45.038Z,5.93
